Time;durP1;ratioP1;P1;durP2;ratioP2;P2;SDS_P1;SDS_P2;PMS_P1;PMS_P2;Temp;Humidity;BMP_temperature;BMP_pressure;BME280_temperature;BME280_humidity;BME280_pressure;Samples;Min_cycle;Max_cycle;Signal;HPM_P1;HPM_P2
2024/04/08 00:00:42;;;;;;;3.47;2.60;;;19.70;99.90;;;;;;5090414;28;20298;-73
2024/04/08 00:03:08;;;;;;;5.47;2.70;;;19.60;99.90;;;;;;5090260;28;20216;-73
2024/04/08 00:05:35;;;;;;;4.00;2.90;;;19.60;99.90;;;;;;5089628;28;20564;-73
2024/04/08 00:08:01;;;;;;;3.23;2.67;;;19.60;99.90;;;;;;5087272;28;20783;-74
2024/04/08 00:10:28;;;;;;;4.20;2.50;;;19.60;99.90;;;;;;5089980;28;20264;-73
2024/04/08 00:12:55;;;;;;;5.23;2.70;;;19.60;99.90;;;;;;5090131;28;20297;-74
2024/04/08 00:15:22;;;;;;;5.45;2.42;;;19.60;99.90;;;;;;5087012;28;20687;-74
2024/04/08 00:17:48;;;;;;;4.03;2.43;;;19.60;99.90;;;;;;5081199;28;20210;-74
2024/04/08 00:20:15;;;;;;;3.97;2.70;;;19.60;99.90;;;;;;5069881;28;20199;-74
2024/04/08 00:22:42;;;;;;;3.20;2.70;;;19.60;99.90;;;;;;5072599;28;20253;-74
2024/04/08 00:25:09;;;;;;;5.40;2.73;;;19.60;99.90;;;;;;5070793;28;20974;-74
2024/04/08 00:27:36;;;;;;;5.18;2.60;;;19.60;99.90;;;;;;5069511;28;20915;-74
2024/04/08 00:30:05;;;;;;;4.03;2.40;;;19.60;99.90;;;;;;5069022;28;20222;-74
2024/04/08 00:32:31;;;;;;;3.80;2.80;;;19.60;99.90;;;;;;5071743;28;20290;-74
2024/04/08 00:34:58;;;;;;;5.85;3.00;;;19.50;99.90;;;;;;5069449;28;20714;-74
2024/04/08 00:37:24;;;;;;;10.37;3.23;;;19.50;99.90;;;;;;5076523;28;20681;-74
2024/04/08 00:39:51;;;;;;;3.13;2.23;;;19.50;99.90;;;;;;5089403;28;20317;-74
2024/04/08 00:42:17;;;;;;;3.43;2.60;;;19.50;99.90;;;;;;5089867;28;20294;-75
2024/04/08 00:44:44;;;;;;;6.90;2.90;;;19.50;99.90;;;;;;5090029;28;21012;-76
2024/04/08 00:47:11;;;;;;;4.10;2.90;;;19.50;99.90;;;;;;5089539;28;20215;-75
2024/04/08 00:49:41;;;;;;;4.33;2.67;;;19.60;99.90;;;;;;5089930;28;20241;-76
2024/04/08 00:52:08;;;;;;;5.30;3.03;;;19.60;99.90;;;;;;5083849;28;20242;-75
2024/04/08 00:54:35;;;;;;;4.27;3.03;;;19.50;99.90;;;;;;5081025;28;20631;-75
2024/04/08 00:57:05;;;;;;;4.93;3.03;;;19.60;99.90;;;;;;5089111;28;20303;-77
2024/04/08 00:59:34;;;;;;;7.43;3.10;;;19.60;99.90;;;;;;5089840;28;20242;-76
2024/04/08 01:02:00;;;;;;;5.47;2.90;;;19.60;99.90;;;;;;5087250;28;20936;-77
2024/04/08 01:04:31;;;;;;;5.93;2.87;;;19.50;99.90;;;;;;5088855;28;20731;-77
2024/04/08 01:06:56;;;;;;;4.37;2.43;;;19.50;99.90;;;;;;5086458;28;20193;-77
2024/04/08 01:09:23;;;;;;;2.80;2.50;;;19.60;99.90;;;;;;5069720;28;20881;-77
2024/04/08 01:11:49;;;;;;;5.37;2.67;;;19.60;99.90;;;;;;5069230;28;20289;-77
2024/04/08 01:14:16;;;;;;;6.90;2.80;;;19.60;99.90;;;;;;5069378;28;20580;-77
2024/04/08 01:16:42;;;;;;;5.57;2.70;;;19.60;99.90;;;;;;5068927;28;20596;-77
2024/04/08 01:19:11;;;;;;;6.03;2.63;;;19.50;99.90;;;;;;5080303;28;20239;-77
2024/04/08 01:21:39;;;;;;;5.87;2.60;;;19.50;99.90;;;;;;5088935;28;20815;-77
2024/04/08 01:24:08;;;;;;;11.97;2.80;;;19.50;99.90;;;;;;5068974;28;20211;-77
2024/04/08 01:26:34;;;;;;;5.57;2.50;;;19.50;99.90;;;;;;5068711;28;20295;-77
2024/04/08 01:29:01;;;;;;;2.53;2.33;;;19.60;99.90;;;;;;5068772;28;20306;-77
2024/04/08 01:31:27;;;;;;;4.87;2.50;;;19.50;99.90;;;;;;5068477;28;20230;-74
2024/04/08 01:33:54;;;;;;;4.80;2.90;;;19.20;99.90;;;;;;5068837;28;20686;-75
2024/04/08 01:36:20;;;;;;;3.97;2.60;;;18.90;99.90;;;;;;5068001;28;20303;-73
2024/04/08 01:38:47;;;;;;;5.27;2.70;;;18.80;99.90;;;;;;5068069;28;20322;-73
2024/04/08 01:41:14;;;;;;;4.13;2.83;;;18.80;99.90;;;;;;5067210;28;20239;-74
2024/04/08 01:43:41;;;;;;;3.93;2.63;;;18.80;99.90;;;;;;5068407;28;20304;-74
2024/04/08 01:46:07;;;;;;;4.07;2.60;;;19.00;99.90;;;;;;5068206;28;20211;-74
2024/04/08 01:48:33;;;;;;;3.23;2.70;;;19.00;99.90;;;;;;5068132;28;20709;-74
2024/04/08 01:50:59;;;;;;;4.17;2.57;;;19.10;99.90;;;;;;5067870;28;20290;-74
2024/04/08 01:53:26;;;;;;;7.83;3.20;;;19.20;99.90;;;;;;5082784;28;20286;-75
2024/04/08 01:55:52;;;;;;;2.87;2.50;;;19.20;99.90;;;;;;5088488;28;20294;-75
2024/04/08 01:58:20;;;;;;;6.73;2.70;;;19.30;99.90;;;;;;5088009;28;20210;-75
2024/04/08 02:00:46;;;;;;;3.93;2.70;;;19.30;99.90;;;;;;5087635;28;20207;-75
2024/04/08 02:03:13;;;;;;;3.20;2.70;;;19.40;99.90;;;;;;5088069;28;20221;-76
2024/04/08 02:05:39;;;;;;;3.93;2.90;;;19.30;99.90;;;;;;5088193;28;20660;-74
2024/04/08 02:08:06;;;;;;;3.33;2.53;;;19.30;99.90;;;;;;5072491;28;20204;-74
2024/04/08 02:10:32;;;;;;;4.80;2.83;;;19.30;99.90;;;;;;5067766;28;20310;-75
2024/04/08 02:12:59;;;;;;;3.33;2.40;;;19.30;99.90;;;;;;5084617;28;20207;-74
2024/04/08 02:15:26;;;;;;;5.35;2.42;;;19.30;99.90;;;;;;5085433;28;20231;-74
2024/04/08 02:17:53;;;;;;;4.90;2.40;;;19.30;99.90;;;;;;5092250;28;20206;-75
2024/04/08 02:20:19;;;;;;;5.20;2.53;;;19.30;99.90;;;;;;5097313;28;20796;-74
2024/04/08 02:22:46;;;;;;;5.83;2.73;;;19.20;99.90;;;;;;5093189;28;20202;-75
2024/04/08 02:25:12;;;;;;;2.87;2.43;;;19.20;99.90;;;;;;5087945;28;20637;-74
2024/04/08 02:27:39;;;;;;;5.80;2.90;;;19.20;99.90;;;;;;5069481;28;20662;-74
2024/04/08 02:30:06;;;;;;;5.70;2.70;;;19.30;99.90;;;;;;5088128;28;20676;-74
2024/04/08 02:32:34;;;;;;;3.93;2.73;;;19.30;99.90;;;;;;5105890;27;20249;-75
2024/04/08 02:35:01;;;;;;;4.97;2.50;;;19.20;99.90;;;;;;5106054;28;20224;-74
2024/04/08 02:37:28;;;;;;;4.30;2.70;;;19.20;99.90;;;;;;5094374;28;20867;-74
2024/04/08 02:39:54;;;;;;;5.90;2.67;;;19.30;99.90;;;;;;5085082;28;20360;-75
2024/04/08 02:42:20;;;;;;;4.90;2.50;;;19.20;99.90;;;;;;5085432;28;20689;-75
2024/04/08 02:44:46;;;;;;;4.70;2.70;;;19.20;99.90;;;;;;5085220;28;20293;-74
2024/04/08 02:47:13;;;;;;;5.20;2.67;;;19.20;99.90;;;;;;5085644;28;20964;-74
2024/04/08 02:49:41;;;;;;;4.23;2.60;;;19.20;99.90;;;;;;5085431;28;20214;-75
2024/04/08 02:52:07;;;;;;;5.47;2.70;;;19.20;99.90;;;;;;5081585;28;20214;-74
2024/04/08 02:54:33;;;;;;;4.00;2.57;;;19.20;99.90;;;;;;5083150;28;20314;-74
2024/04/08 02:57:00;;;;;;;5.57;2.50;;;19.20;99.90;;;;;;5069099;28;20222;-74
2024/04/08 02:59:26;;;;;;;3.13;2.60;;;19.10;99.90;;;;;;5068217;28;20219;-74
2024/04/08 03:01:53;;;;;;;6.87;2.93;;;19.00;99.90;;;;;;5078351;28;20213;-74
2024/04/08 03:04:19;;;;;;;5.77;2.40;;;18.90;99.90;;;;;;5066194;28;20737;-75
2024/04/08 03:06:47;;;;;;;3.83;2.40;;;18.90;99.90;;;;;;5065738;28;20287;-74
2024/04/08 03:09:13;;;;;;;3.57;2.60;;;18.90;99.90;;;;;;5065804;28;20290;-74
2024/04/08 03:11:40;;;;;;;3.53;2.80;;;18.90;99.90;;;;;;5068757;28;20734;-74
2024/04/08 03:14:05;;;;;;;3.50;2.57;;;18.80;99.90;;;;;;5086033;28;20309;-74
2024/04/08 03:16:32;;;;;;;6.20;2.60;;;18.80;99.90;;;;;;5080026;28;20322;-74
2024/04/08 03:18:58;;;;;;;6.93;2.77;;;18.70;99.90;;;;;;5065977;28;20318;-74
2024/04/08 03:21:25;;;;;;;4.57;3.20;;;18.70;99.90;;;;;;5066760;28;20849;-75
2024/04/08 03:23:52;;;;;;;5.27;3.20;;;18.40;99.90;;;;;;5066813;28;20508;-73
2024/04/08 03:26:19;;;;;;;7.37;3.00;;;18.30;99.90;;;;;;5067004;28;20252;-73
2024/04/08 03:28:45;;;;;;;5.33;3.03;;;18.40;99.90;;;;;;5066731;28;20789;-73
2024/04/08 03:31:13;;;;;;;4.10;2.80;;;18.40;99.90;;;;;;5066518;28;20318;-73
2024/04/08 03:33:39;;;;;;;9.67;2.93;;;18.40;99.90;;;;;;5066495;28;20226;-74
2024/04/08 03:36:09;;;;;;;4.97;2.70;;;18.40;99.90;;;;;;5066508;28;20286;-74
2024/04/08 03:38:36;;;;;;;4.53;2.53;;;18.40;99.90;;;;;;5066282;28;20796;-74
2024/04/08 03:41:07;;;;;;;6.60;2.93;;;18.40;99.90;;;;;;5066669;28;20279;-74
2024/04/08 03:43:34;;;;;;;5.33;3.53;;;18.30;99.90;;;;;;5066614;28;20279;-74
2024/04/08 03:46:02;;;;;;;4.53;3.17;;;18.40;99.90;;;;;;5066341;28;20298;-74
2024/04/08 03:48:29;;;;;;;8.43;3.47;;;18.40;99.90;;;;;;5066110;28;20756;-74
2024/04/08 03:50:56;;;;;;;7.30;3.23;;;18.40;99.90;;;;;;5066384;28;20429;-74
2024/04/08 03:53:22;;;;;;;5.33;3.10;;;18.40;99.90;;;;;;5065917;28;20217;-74
2024/04/08 03:55:49;;;;;;;4.40;3.20;;;18.30;99.90;;;;;;5066337;28;20204;-74
2024/04/08 03:58:16;;;;;;;4.77;2.97;;;18.30;99.90;;;;;;5066114;28;20315;-74
2024/04/08 04:00:43;;;;;;;5.37;3.20;;;18.30;99.90;;;;;;5084170;28;20701;-74
2024/04/08 04:03:09;;;;;;;6.17;3.37;;;18.30;99.90;;;;;;5086035;28;20306;-75
2024/04/08 04:05:36;;;;;;;5.87;3.27;;;18.30;99.90;;;;;;5090006;28;20286;-73
2024/04/08 04:08:02;;;;;;;3.90;3.30;;;18.30;99.90;;;;;;5089628;28;20233;-73
2024/04/08 04:10:29;;;;;;;6.47;2.90;;;18.30;99.90;;;;;;5089885;28;20218;-73
2024/04/08 04:12:55;;;;;;;4.80;3.00;;;18.30;99.90;;;;;;5090044;28;20630;-74
2024/04/08 04:15:23;;;;;;;3.30;2.80;;;18.30;99.90;;;;;;5089845;28;20262;-73
2024/04/08 04:17:49;;;;;;;4.97;3.03;;;18.20;99.90;;;;;;5089821;28;20301;-73
2024/04/08 04:20:17;;;;;;;7.70;3.67;;;18.10;99.90;;;;;;5089711;28;20325;-73
2024/04/08 04:22:44;;;;;;;6.03;3.37;;;18.00;99.90;;;;;;5089811;28;20248;-74
2024/04/08 04:25:11;;;;;;;6.33;3.37;;;18.00;99.90;;;;;;5089800;28;20211;-74
2024/04/08 04:27:37;;;;;;;4.43;3.20;;;18.00;99.90;;;;;;5090034;28;20285;-74
2024/04/08 04:30:05;;;;;;;6.57;3.50;;;18.00;99.90;;;;;;5090016;28;20776;-74
2024/04/08 04:32:32;;;;;;;7.03;3.57;;;18.00;99.90;;;;;;5089772;28;20203;-74
2024/04/08 04:34:59;;;;;;;7.93;3.90;;;18.00;99.90;;;;;;5089546;28;20206;-74
2024/04/08 04:37:25;;;;;;;7.13;3.80;;;18.00;99.90;;;;;;5089356;28;20329;-74
2024/04/08 04:39:52;;;;;;;5.70;3.40;;;18.00;99.90;;;;;;5089674;28;20325;-74
2024/04/08 04:42:18;;;;;;;6.27;3.13;;;18.00;99.90;;;;;;5089545;28;20205;-74
2024/04/08 04:44:45;;;;;;;4.10;3.00;;;18.00;99.90;;;;;;5089280;28;20568;-74
2024/04/08 04:47:13;;;;;;;6.13;3.33;;;18.00;99.90;;;;;;5088967;28;20668;-74
2024/04/08 04:49:41;;;;;;;3.50;2.73;;;18.00;99.90;;;;;;5086286;28;20739;-74
2024/04/08 04:52:07;;;;;;;7.33;3.27;;;18.00;99.90;;;;;;5085016;28;20302;-74
2024/04/08 04:54:34;;;;;;;4.30;3.00;;;18.00;99.90;;;;;;5069112;28;20736;-74
2024/04/08 04:57:00;;;;;;;6.23;2.87;;;18.00;99.90;;;;;;5084126;28;20744;-74
2024/04/08 04:59:27;;;;;;;6.43;2.90;;;17.90;99.90;;;;;;5089186;28;20243;-74
2024/04/08 05:01:53;;;;;;;7.47;3.33;;;17.90;99.90;;;;;;5070721;28;20678;-74
2024/04/08 05:04:20;;;;;;;3.17;2.87;;;17.90;99.90;;;;;;5083949;28;20287;-74
2024/04/08 05:06:47;;;;;;;7.60;3.17;;;17.80;99.90;;;;;;5089311;28;20298;-74
2024/04/08 05:09:14;;;;;;;9.17;3.50;;;17.90;99.90;;;;;;5081931;28;20310;-74
2024/04/08 05:11:40;;;;;;;6.10;3.20;;;17.90;99.90;;;;;;5068744;28;20731;-74
2024/04/08 05:14:07;;;;;;;5.90;3.20;;;17.80;99.90;;;;;;5068624;28;20207;-74
2024/04/08 05:16:33;;;;;;;7.20;3.03;;;17.80;99.90;;;;;;5068345;28;20250;-73
2024/04/08 05:19:00;;;;;;;4.83;3.33;;;17.80;99.90;;;;;;5068345;28;20674;-74
2024/04/08 05:21:26;;;;;;;10.27;3.43;;;17.80;99.90;;;;;;5068813;28;20314;-74
2024/04/08 05:23:54;;;;;;;7.17;3.17;;;17.80;99.90;;;;;;5068647;28;20686;-74
2024/04/08 05:26:20;;;;;;;7.10;3.97;;;17.90;99.90;;;;;;5068436;28;20298;-74
2024/04/08 05:28:47;;;;;;;7.83;3.47;;;17.90;99.90;;;;;;5068805;28;20303;-74
2024/04/08 05:31:13;;;;;;;8.13;3.80;;;17.90;99.90;;;;;;5068308;28;20246;-74
2024/04/08 05:33:40;;;;;;;5.87;3.20;;;18.00;99.90;;;;;;5068551;28;20289;-74
2024/04/08 05:36:06;;;;;;;10.13;3.67;;;18.00;99.90;;;;;;5068474;28;20856;-74
2024/04/08 05:38:33;;;;;;;9.27;3.30;;;18.10;99.90;;;;;;5068369;28;20211;-74
2024/04/08 05:41:01;;;;;;;3.40;3.03;;;18.20;99.90;;;;;;5068513;28;20321;-74
2024/04/08 05:43:28;;;;;;;3.97;3.57;;;18.20;99.90;;;;;;5068689;28;20242;-74
2024/04/08 05:45:55;;;;;;;6.07;3.80;;;18.20;99.90;;;;;;5084645;28;20249;-74
2024/04/08 05:48:21;;;;;;;5.33;3.43;;;18.10;99.90;;;;;;5088690;28;20256;-74
2024/04/08 05:50:48;;;;;;;4.93;3.40;;;18.20;99.90;;;;;;5088537;28;20583;-74
2024/04/08 05:53:14;;;;;;;5.73;3.00;;;18.10;99.90;;;;;;5072630;28;20681;-74
2024/04/08 05:55:41;;;;;;;7.17;3.23;;;18.10;99.90;;;;;;5068069;28;20200;-74
2024/04/08 05:58:09;;;;;;;4.63;3.57;;;17.90;99.90;;;;;;5067853;28;20294;-74
2024/04/08 06:00:36;;;;;;;5.80;3.60;;;17.90;99.90;;;;;;5083490;28;20223;-74
2024/04/08 06:03:03;;;;;;;7.53;3.70;;;18.00;99.90;;;;;;5087454;28;21052;-75
2024/04/08 06:05:30;;;;;;;11.17;4.50;;;18.00;99.90;;;;;;5080851;28;20200;-74
2024/04/08 06:07:56;;;;;;;8.37;4.23;;;18.00;99.90;;;;;;5067567;28;20336;-74
2024/04/08 06:10:26;;;;;;;8.67;4.03;;;18.00;99.90;;;;;;5067386;28;20288;-74
2024/04/08 06:12:52;;;;;;;7.73;3.70;;;18.00;99.90;;;;;;5067878;28;20207;-74
2024/04/08 06:15:20;;;;;;;7.50;3.43;;;18.00;99.90;;;;;;5067293;28;20235;-74
2024/04/08 06:17:46;;;;;;;7.23;3.70;;;18.00;99.90;;;;;;5067572;28;20267;-74
2024/04/08 06:20:13;;;;;;;6.97;4.07;;;17.90;99.90;;;;;;5067301;28;20318;-74
2024/04/08 06:22:39;;;;;;;11.70;3.83;;;18.00;99.90;;;;;;5067035;28;20306;-74
2024/04/08 06:25:09;;;;;;;5.80;3.60;;;18.00;99.90;;;;;;5067175;28;20298;-74
2024/04/08 06:27:35;;;;;;;6.13;3.50;;;18.00;99.90;;;;;;5066975;28;20215;-74
2024/04/08 06:30:02;;;;;;;7.13;3.40;;;18.10;99.90;;;;;;5066975;28;20579;-74
2024/04/08 06:32:29;;;;;;;5.53;4.00;;;18.00;99.90;;;;;;5067171;28;20231;-74
2024/04/08 06:34:56;;;;;;;6.27;3.50;;;18.10;99.90;;;;;;5067265;28;20206;-74
2024/04/08 06:37:21;;;;;;;6.90;3.40;;;18.10;99.90;;;;;;5066665;28;20301;-74
2024/04/08 06:39:48;;;;;;;11.23;3.67;;;18.20;99.90;;;;;;5066774;28;20231;-74
2024/04/08 06:42:16;;;;;;;7.17;3.80;;;18.20;99.90;;;;;;5083952;28;20329;-74
2024/04/08 06:44:48;;;;;;;7.17;4.03;;;18.20;99.90;;;;;;5086848;28;20245;-74
2024/04/08 06:47:13;;;;;;;5.43;3.40;;;18.30;99.90;;;;;;5087230;28;20668;-74
2024/04/08 06:49:42;;;;;;;4.03;3.47;;;18.30;99.90;;;;;;5070242;28;20778;-74
2024/04/08 06:52:08;;;;;;;5.27;3.43;;;18.30;99.90;;;;;;5070807;28;20298;-74
2024/04/08 06:54:34;;;;;;;4.47;3.10;;;18.30;99.90;;;;;;5087169;28;20641;-74
2024/04/08 06:57:00;;;;;;;12.17;3.30;;;18.30;99.90;;;;;;5086464;28;20260;-74
2024/04/08 06:59:28;;;;;;;9.43;3.47;;;18.30;99.90;;;;;;5086667;28;20238;-74
2024/04/08 07:01:54;;;;;;;5.77;3.17;;;18.30;99.90;;;;;;5078386;28;20257;-74
2024/04/08 07:04:22;;;;;;;4.77;2.67;;;18.30;99.90;;;;;;5066959;28;20208;-74
2024/04/08 07:06:49;;;;;;;3.43;3.10;;;18.30;99.90;;;;;;5066806;28;20214;-74
2024/04/08 07:09:16;;;;;;;4.57;3.17;;;18.30;99.90;;;;;;5066702;28;20205;-74
2024/04/08 07:11:43;;;;;;;5.33;3.50;;;18.40;99.90;;;;;;5066769;28;20461;-74
2024/04/08 07:14:09;;;;;;;4.10;3.13;;;18.40;99.90;;;;;;5066716;28;20204;-74
2024/04/08 07:16:35;;;;;;;5.13;2.90;;;18.40;99.90;;;;;;5066288;28;20245;-74
2024/04/08 07:19:02;;;;;;;12.40;3.50;;;18.40;99.90;;;;;;5066628;28;20203;-75
2024/04/08 07:21:28;;;;;;;5.87;3.40;;;18.50;99.90;;;;;;5066106;28;20223;-74
2024/04/08 07:23:57;;;;;;;4.87;3.13;;;18.40;99.90;;;;;;5066427;28;20222;-74
2024/04/08 07:26:23;;;;;;;4.03;3.27;;;18.50;99.90;;;;;;5066370;28;20250;-74
2024/04/08 07:28:50;;;;;;;5.67;3.23;;;18.60;99.90;;;;;;5066409;28;20269;-74
2024/04/08 07:31:16;;;;;;;4.90;3.37;;;18.70;99.90;;;;;;5066522;28;20260;-74
2024/04/08 07:33:43;;;;;;;5.70;3.37;;;18.80;99.90;;;;;;5066552;28;20211;-74
2024/04/08 07:36:09;;;;;;;5.73;3.33;;;18.90;99.90;;;;;;5066265;28;20628;-74
2024/04/08 07:38:36;;;;;;;5.93;3.27;;;19.00;99.90;;;;;;5084567;28;20290;-74
2024/04/08 07:41:03;;;;;;;5.37;3.10;;;19.10;99.90;;;;;;5090475;28;20312;-74
2024/04/08 07:43:31;;;;;;;5.13;3.50;;;19.00;99.90;;;;;;5090902;28;20234;-74
2024/04/08 07:45:57;;;;;;;7.40;3.73;;;19.00;99.90;;;;;;5073806;28;20208;-74
2024/04/08 07:48:23;;;;;;;6.03;3.60;;;19.00;99.90;;;;;;5070144;28;20913;-74
2024/04/08 07:50:51;;;;;;;8.70;3.63;;;18.90;99.90;;;;;;5070393;28;20204;-74
2024/04/08 07:53:18;;;;;;;5.40;3.80;;;18.70;99.90;;;;;;5080748;28;20287;-74
2024/04/08 07:55:44;;;;;;;4.07;3.57;;;18.60;99.90;;;;;;5069994;28;20769;-74
2024/04/08 07:58:13;;;;;;;5.63;4.00;;;18.70;99.90;;;;;;5069756;28;20619;-74
2024/04/08 08:00:39;;;;;;;5.43;3.37;;;18.80;99.90;;;;;;5069984;28;20322;-74
2024/04/08 08:03:06;;;;;;;7.87;3.37;;;18.80;99.90;;;;;;5069914;28;20206;-74
2024/04/08 08:05:32;;;;;;;12.40;3.73;;;18.90;99.90;;;;;;5070091;28;20593;-74
2024/04/08 08:08:00;;;;;;;4.97;2.60;;;18.90;99.90;;;;;;5069671;28;20256;-74
2024/04/08 08:10:28;;;;;;;7.00;3.43;;;18.90;99.90;;;;;;5069996;28;20223;-74
2024/04/08 08:12:54;;;;;;;7.77;3.07;;;18.90;99.90;;;;;;5069895;28;20295;-74
2024/04/08 08:15:23;;;;;;;6.77;3.27;;;19.00;99.90;;;;;;5069630;28;20330;-74
2024/04/08 08:17:52;;;;;;;4.53;2.93;;;19.00;99.90;;;;;;5070125;28;20307;-77
2024/04/08 08:20:19;;;;;;;6.63;3.27;;;19.00;99.90;;;;;;5069611;28;20234;-74
2024/04/08 08:22:46;;;;;;;8.30;3.83;;;19.00;99.90;;;;;;5078750;28;20760;-74
2024/04/08 08:25:13;;;;;;;6.03;3.30;;;19.00;99.90;;;;;;5089867;28;20234;-74
2024/04/08 08:27:40;;;;;;;4.30;3.03;;;19.00;99.90;;;;;;5090018;28;20904;-74
2024/04/08 08:30:07;;;;;;;7.93;3.33;;;19.10;99.90;;;;;;5089857;28;20245;-74
2024/04/08 08:32:36;;;;;;;6.87;3.37;;;19.20;99.90;;;;;;5088161;28;20213;-74
2024/04/08 08:35:03;;;;;;;5.38;3.20;;;19.20;99.90;;;;;;5088784;28;20756;-74
2024/04/08 08:37:29;;;;;;;8.82;3.60;;;19.20;99.90;;;;;;5089634;28;20210;-74
2024/04/08 08:39:56;;;;;;;3.33;3.00;;;19.20;99.90;;;;;;5089172;28;20206;-74
2024/04/08 08:42:28;;;;;;;3.50;3.20;;;19.10;99.90;;;;;;5089953;28;20301;-74
2024/04/08 08:44:57;;;;;;;7.25;3.53;;;19.10;99.90;;;;;;5089604;28;20268;-74
2024/04/08 08:47:24;;;;;;;6.65;3.03;;;19.20;99.90;;;;;;5089824;28;20692;-74
2024/04/08 08:49:55;;;;;;;7.17;3.77;;;19.30;99.90;;;;;;5088371;28;20242;-74
2024/04/08 08:52:21;;;;;;;7.43;3.10;;;19.30;99.90;;;;;;5089408;28;20641;-74
2024/04/08 08:54:51;;;;;;;6.85;3.58;;;19.40;99.90;;;;;;5077493;28;20852;-74
2024/04/08 08:57:17;;;;;;;8.25;3.40;;;19.50;99.90;;;;;;5069259;28;20242;-74
2024/04/08 08:59:46;;;;;;;9.80;3.23;;;19.50;99.90;;;;;;5069195;28;20480;-74
2024/04/08 09:02:13;;;;;;;6.97;3.60;;;19.50;99.90;;;;;;5069060;28;20294;-74
2024/04/08 09:04:41;;;;;;;4.30;2.95;;;19.60;99.90;;;;;;5068796;28;20578;-74
2024/04/08 09:07:09;;;;;;;5.90;3.87;;;19.70;99.90;;;;;;5068787;28;20254;-74
2024/04/08 09:09:36;;;;;;;7.10;3.30;;;19.70;99.90;;;;;;5068995;28;20313;-74
2024/04/08 09:12:02;;;;;;;8.87;3.97;;;19.80;99.90;;;;;;5068711;28;20299;-74
2024/04/08 09:14:30;;;;;;;9.80;3.70;;;19.80;99.90;;;;;;5068708;28;20725;-74
2024/04/08 09:17:04;;;;;;;12.02;3.83;;;19.80;99.90;;;;;;5068218;28;20247;-74
2024/04/08 09:19:31;;;;;;;6.32;3.40;;;19.90;99.90;;;;;;5068601;28;20290;-74
2024/04/08 09:21:57;;;;;;;10.27;3.17;;;20.00;99.90;;;;;;5070984;28;20334;-74
2024/04/08 09:24:26;;;;;;;8.00;3.42;;;20.20;99.90;;;;;;5089059;28;20314;-74
2024/04/08 09:26:52;;;;;;;6.32;4.35;;;20.30;99.90;;;;;;5088532;28;20289;-74
2024/04/08 09:29:19;;;;;;;12.25;5.50;;;20.50;99.90;;;;;;5088330;28;20297;-75
2024/04/08 09:31:45;;;;;;;5.45;3.90;;;20.50;99.90;;;;;;5088556;28;20699;-74
2024/04/08 09:34:13;;;;;;;7.20;3.17;;;20.70;99.90;;;;;;5088267;28;20681;-74
2024/04/08 09:36:40;;;;;;;4.93;3.33;;;20.80;99.90;;;;;;5086798;28;20290;-74
2024/04/08 09:39:09;;;;;;;6.30;3.00;;;20.90;99.90;;;;;;5068463;28;20214;-74
2024/04/08 09:41:37;;;;;;;6.32;3.28;;;20.90;99.90;;;;;;5068504;28;20239;-75
2024/04/08 09:44:05;;;;;;;5.38;3.08;;;20.80;99.90;;;;;;5070862;28;20252;-74
2024/04/08 09:46:32;;;;;;;8.82;3.47;;;20.90;99.90;;;;;;5088559;28;20632;-74
2024/04/08 09:48:59;;;;;;;7.35;3.25;;;20.80;99.90;;;;;;5088510;28;20293;-74
2024/04/08 09:51:26;;;;;;;4.55;3.20;;;20.80;99.90;;;;;;5088106;28;20207;-75
2024/04/08 09:53:53;;;;;;;7.15;3.20;;;20.80;99.90;;;;;;5069801;28;20207;-74
2024/04/08 09:56:21;;;;;;;5.13;3.08;;;20.80;99.90;;;;;;5067903;28;20294;-74
2024/04/08 09:59:02;;;;;;;9.80;3.50;;;20.90;99.90;;;;;;5067693;28;20203;-74
2024/04/08 10:01:28;;;;;;;7.72;3.45;;;21.00;99.90;;;;;;5067442;28;20270;-74
2024/04/08 10:04:00;;;;;;;7.40;2.92;;;21.20;99.90;;;;;;5067845;28;20297;-72
2024/04/08 10:06:27;;;;;;;10.75;3.60;;;21.40;99.90;;;;;;5067970;28;20274;-73
2024/04/08 10:08:54;;;;;;;6.70;3.45;;;21.60;99.90;;;;;;5067960;28;20207;-72
2024/04/08 10:11:21;;;;;;;8.23;3.15;;;21.70;99.90;;;;;;5067339;28;20595;-73
2024/04/08 10:13:48;;;;;;;8.15;3.20;;;21.90;99.90;;;;;;5067960;28;20208;-72
2024/04/08 10:16:16;;;;;;;7.70;3.30;;;22.00;99.90;;;;;;5067249;28;20243;-72
2024/04/08 10:18:48;;;;;;;8.07;2.75;;;22.00;99.90;;;;;;5067778;28;20298;-73
2024/04/08 10:21:14;;;;;;;8.20;3.55;;;22.20;99.90;;;;;;5066696;28;20231;-73
2024/04/08 10:23:43;;;;;;;5.60;3.22;;;22.30;99.90;;;;;;5067573;28;20215;-73
2024/04/08 10:26:11;;;;;;;5.45;3.55;;;22.40;99.90;;;;;;5067418;28;20321;-73
2024/04/08 10:28:41;;;;;;;8.85;3.50;;;22.50;99.90;;;;;;5067188;28;20207;-73
2024/04/08 10:31:08;;;;;;;4.70;3.20;;;22.70;99.90;;;;;;5066644;28;20202;-73
2024/04/08 10:33:36;;;;;;;9.48;3.80;;;22.70;99.90;;;;;;5074583;28;20199;-73
2024/04/08 10:36:03;;;;;;;9.98;3.42;;;22.80;99.90;;;;;;5087420;28;20301;-73
2024/04/08 10:38:30;;;;;;;8.82;3.30;;;22.90;99.90;;;;;;5087465;28;20293;-73
2024/04/08 10:41:03;;;;;;;9.60;3.13;;;22.90;99.90;;;;;;5087126;28;20765;-73
2024/04/08 10:43:32;;;;;;;8.20;3.20;;;23.10;99.90;;;;;;5087625;28;20202;-73
2024/04/08 10:45:58;;;;;;;7.10;3.05;;;23.20;99.90;;;;;;5087125;28;20230;-73
2024/04/08 10:48:25;;;;;;;6.72;2.85;;;23.40;99.90;;;;;;5067598;28;20744;-73
2024/04/08 10:50:53;;;;;;;11.52;3.72;;;23.50;99.90;;;;;;5067295;28;20315;-73
2024/04/08 10:53:20;;;;;;;13.25;3.40;;;23.60;99.90;;;;;;5080786;28;20207;-73
2024/04/08 10:55:45;;;;;;;5.38;3.10;;;23.70;99.90;;;;;;5087266;28;20633;-73
2024/04/08 10:58:13;;;;;;;8.20;3.60;;;23.80;99.90;;;;;;5086968;28;20301;-73
2024/04/08 11:00:39;;;;;;;7.32;3.20;;;23.90;99.90;;;;;;5087300;28;20329;-73
2024/04/08 11:03:06;;;;;;;5.50;2.90;;;23.90;99.90;;;;;;5087207;28;20286;-73
2024/04/08 11:05:33;;;;;;;7.35;3.00;;;24.20;99.90;;;;;;5087256;28;20294;-73
2024/04/08 11:08:01;;;;;;;5.90;3.00;;;24.30;99.90;;;;;;5087035;28;20199;-73
2024/04/08 11:10:28;;;;;;;9.32;3.30;;;24.40;99.90;;;;;;5086908;28;20788;-73
2024/04/08 11:12:56;;;;;;;5.25;2.83;;;24.40;99.90;;;;;;5086953;28;20233;-73
2024/04/08 11:15:23;;;;;;;6.45;3.20;;;24.50;99.90;;;;;;5086915;28;20234;-73
2024/04/08 11:17:55;;;;;;;10.63;2.97;;;24.50;99.90;;;;;;5086722;28;20210;-73
2024/04/08 11:20:22;;;;;;;7.97;2.80;;;24.60;99.90;;;;;;5086937;28;20289;-73
2024/04/08 11:22:49;;;;;;;9.35;3.10;;;24.60;99.90;;;;;;5073775;28;20252;-73
2024/04/08 11:25:16;;;;;;;11.20;3.35;;;24.60;99.90;;;;;;5066349;28;20757;-73
2024/04/08 11:27:43;;;;;;;7.93;2.83;;;24.60;99.90;;;;;;5066526;28;20566;-73
2024/04/08 11:30:13;;;;;;;5.93;2.75;;;24.70;99.90;;;;;;5076768;28;20211;-73
2024/04/08 11:32:40;;;;;;;7.03;2.78;;;24.90;99.90;;;;;;5086781;28;20257;-73
2024/04/08 11:35:06;;;;;;;9.73;3.10;;;25.00;99.90;;;;;;5086742;28;20286;-73
2024/04/08 11:37:33;;;;;;;8.43;3.25;;;25.10;99.90;;;;;;5086529;28;20210;-73
2024/04/08 11:39:59;;;;;;;7.03;3.03;;;25.30;99.90;;;;;;5066366;28;20269;-73
2024/04/08 11:42:27;;;;;;;9.43;3.05;;;25.40;99.90;;;;;;5068629;28;20262;-73
2024/04/08 11:44:57;;;;;;;9.13;3.13;;;25.40;99.90;;;;;;5086641;28;20282;-73
2024/04/08 11:47:24;;;;;;;8.88;3.42;;;25.50;99.90;;;;;;5086732;28;20257;-73
2024/04/08 11:49:50;;;;;;;7.90;2.95;;;25.50;99.90;;;;;;5086719;28;20281;-73
2024/04/08 11:52:17;;;;;;;4.90;2.70;;;25.60;99.90;;;;;;5086486;28;20214;-73
2024/04/08 11:54:43;;;;;;;8.25;2.95;;;25.70;99.90;;;;;;5086469;28;20242;-73
2024/04/08 11:57:11;;;;;;;4.93;2.35;;;25.80;99.90;;;;;;5085746;28;20210;-73
2024/04/08 11:59:38;;;;;;;7.75;2.72;;;25.90;99.90;;;;;;5086514;28;20233;-73
2024/04/08 12:02:05;;;;;;;10.25;3.30;;;25.90;99.90;;;;;;5086188;28;20621;-73
2024/04/08 12:04:32;;;;;;;11.90;2.78;;;25.80;99.90;;;;;;5086121;28;20739;-73
2024/04/08 12:06:59;;;;;;;13.43;3.50;;;25.90;99.90;;;;;;5086267;28;20206;-73
2024/04/08 12:09:25;;;;;;;10.65;3.00;;;25.90;99.90;;;;;;5086516;28;20678;-73
2024/04/08 12:11:52;;;;;;;5.43;3.05;;;26.00;99.90;;;;;;5086181;28;20297;-73
2024/04/08 12:14:18;;;;;;;12.13;3.30;;;26.10;99.90;;;;;;5086155;28;20298;-73
2024/04/08 12:16:46;;;;;;;7.22;3.00;;;26.20;99.90;;;;;;5086119;28;20269;-73
2024/04/08 12:19:12;;;;;;;7.57;3.03;;;26.40;99.90;;;;;;5083145;28;20246;-73
2024/04/08 12:21:39;;;;;;;5.75;2.95;;;26.50;99.90;;;;;;5085990;28;20289;-74
2024/04/08 12:24:05;;;;;;;10.07;3.35;;;26.50;99.80;;;;;;5066183;28;20326;-73
2024/04/08 12:26:32;;;;;;;10.00;3.13;;;26.50;99.90;;;;;;5080531;28;20285;-73
2024/04/08 12:28:58;;;;;;;4.15;2.92;;;26.60;99.90;;;;;;5089958;28;20317;-73
2024/04/08 12:31:25;;;;;;;13.55;3.40;;;26.60;99.90;;;;;;5090247;28;20293;-73
2024/04/08 12:33:53;;;;;;;5.53;2.72;;;26.60;99.90;;;;;;5078373;28;20229;-73
2024/04/08 12:36:19;;;;;;;7.88;3.50;;;26.60;99.90;;;;;;5089312;28;20581;-73
2024/04/08 12:38:45;;;;;;;6.80;3.17;;;26.70;99.90;;;;;;5086768;28;20315;-73
2024/04/08 12:41:12;;;;;;;9.27;3.17;;;26.80;99.90;;;;;;5069550;28;20714;-73
2024/04/08 12:43:39;;;;;;;10.07;3.10;;;27.00;99.90;;;;;;5069679;28;20286;-74